createdAt,value
2023-05-09T00:00:50.045Z,52.3408
2023-05-09T00:01:51.157Z,52.2806
2023-05-09T00:02:52.265Z,52.1719
2023-05-09T00:03:53.400Z,52.1205
2023-05-09T00:04:54.459Z,52.1369
2023-05-09T00:05:55.610Z,52.0035
2023-05-09T00:06:56.620Z,51.9900
2023-05-09T00:07:57.712Z,52.0065
2023-05-09T00:08:58.816Z,51.9951
2023-05-09T00:09:59.897Z,51.9604
2023-05-09T00:11:00.999Z,52.0913
2023-05-09T00:12:02.096Z,52.0693
2023-05-09T00:13:03.208Z,51.9615
2023-05-09T00:14:04.276Z,51.8284
2023-05-09T00:15:05.422Z,51.6870
2023-05-09T00:16:06.474Z,51.5341
2023-05-09T00:17:07.537Z,51.5154
2023-05-09T00:18:08.626Z,51.5406
2023-05-09T00:19:09.736Z,51.4415
2023-05-09T00:20:10.842Z,51.3983
2023-05-09T00:21:11.998Z,51.3986
2023-05-09T00:22:12.998Z,51.3816
2023-05-09T00:23:14.101Z,51.4862
2023-05-09T00:24:15.196Z,51.5370
2023-05-09T00:25:16.508Z,51.4576
2023-05-09T00:26:17.389Z,51.4355
2023-05-09T00:27:18.494Z,51.4688
2023-05-09T00:28:19.573Z,51.3024
2023-05-09T00:29:20.671Z,51.1776
2023-05-09T00:30:21.750Z,51.1383
2023-05-09T00:31:22.862Z,51.2950
2023-05-09T00:32:23.951Z,51.3455
2023-05-09T00:33:25.065Z,51.3506
2023-05-09T00:34:26.146Z,51.3931
2023-05-09T00:35:27.243Z,51.4451
2023-05-09T00:36:28.420Z,51.4735
2023-05-09T00:37:29.434Z,51.4871
2023-05-09T00:38:30.544Z,51.5467
2023-05-09T00:39:31.622Z,51.7356
2023-05-09T00:40:32.732Z,51.8084
2023-05-09T00:41:33.807Z,51.8630
2023-05-09T00:42:34.901Z,51.7868
2023-05-09T00:43:35.982Z,51.7172
2023-05-09T00:44:37.086Z,51.6914
2023-05-09T00:45:38.198Z,51.7485
2023-05-09T00:46:39.273Z,51.6972
2023-05-09T00:47:40.383Z,51.5275
2023-05-09T00:48:41.458Z,51.4769
2023-05-09T00:49:42.563Z,51.4112
2023-05-09T00:50:43.671Z,51.3587
2023-05-09T00:51:44.827Z,51.3608
2023-05-09T00:52:45.819Z,51.3995
2023-05-09T00:53:46.908Z,51.3416
2023-05-09T00:54:48.038Z,51.2527
2023-05-09T00:55:49.109Z,51.3373
2023-05-09T00:56:50.212Z,51.3394
2023-05-09T00:57:51.309Z,51.2876
2023-05-09T00:58:52.398Z,51.2596
2023-05-09T00:59:53.506Z,51.2739
2023-05-09T01:00:54.603Z,51.2654
2023-05-09T01:01:55.689Z,51.1730
2023-05-09T01:02:56.935Z,51.2503
2023-05-09T01:03:57.886Z,51.2034
2023-05-09T01:04:58.992Z,51.1885
2023-05-09T01:06:00.105Z,51.1661
2023-05-09T01:07:01.281Z,51.1259
2023-05-09T01:08:02.280Z,51.0870
2023-05-09T01:09:03.373Z,51.2802
2023-05-09T01:10:04.453Z,51.3306
2023-05-09T01:11:05.617Z,51.1851
2023-05-09T01:12:06.654Z,51.2483
2023-05-09T01:13:07.759Z,51.1780
2023-05-09T01:14:08.856Z,50.9848
2023-05-09T01:15:09.948Z,50.9529
2023-05-09T01:16:11.078Z,50.9320
2023-05-09T01:17:12.108Z,51.0536
2023-05-09T01:18:13.245Z,51.0154
2023-05-09T01:19:14.309Z,51.1728
2023-05-09T01:20:15.405Z,51.2927
2023-05-09T01:21:16.509Z,51.2733
2023-05-09T01:22:17.709Z,51.2299
2023-05-09T01:23:18.693Z,51.1949
2023-05-09T01:24:19.772Z,51.0732
2023-05-09T01:25:20.886Z,51.0491
2023-05-09T01:26:21.964Z,51.1321
2023-05-09T01:27:23.055Z,51.0907
2023-05-09T01:28:24.148Z,51.0104
2023-05-09T01:29:25.254Z,50.8885
2023-05-09T01:30:26.350Z,50.8747
2023-05-09T01:31:27.450Z,51.0229
2023-05-09T01:32:28.614Z,51.1010
2023-05-09T01:33:29.636Z,51.1624
2023-05-09T01:34:30.739Z,51.2795
2023-05-09T01:35:31.834Z,51.3873
2023-05-09T01:36:33.017Z,51.5117
2023-05-09T01:37:34.089Z,51.5530
2023-05-09T01:38:35.109Z,51.4273
2023-05-09T01:39:36.190Z,51.4044
2023-05-09T01:40:37.286Z,51.5821
2023-05-09T01:41:38.416Z,51.5802
2023-05-09T01:42:39.473Z,51.5069
2023-05-09T01:43:40.653Z,51.3862
2023-05-09T01:44:41.663Z,51.3925
2023-05-09T01:45:42.773Z,51.3439
2023-05-09T01:46:43.888Z,51.2047
2023-05-09T01:47:44.991Z,51.0871
2023-05-09T01:48:46.031Z,50.9855
2023-05-09T01:49:47.120Z,50.9325
2023-05-09T01:50:48.208Z,50.9401
2023-05-09T01:51:49.318Z,50.8951
2023-05-09T01:52:50.495Z,50.7825
2023-05-09T01:53:51.493Z,50.7277
2023-05-09T01:54:52.592Z,50.6854
2023-05-09T01:55:53.665Z,50.6357
2023-05-09T01:56:54.796Z,50.6667
2023-05-09T01:57:55.858Z,50.6584
2023-05-09T01:58:56.960Z,50.6206
2023-05-09T01:59:58.041Z,50.6463
2023-05-09T02:00:59.180Z,50.5801
2023-05-09T02:02:00.361Z,50.4858
2023-05-09T02:03:01.427Z,50.4494
2023-05-09T02:04:02.427Z,50.4680
2023-05-09T02:05:03.568Z,50.4359
2023-05-09T02:06:04.611Z,50.3991
2023-05-09T02:07:05.742Z,50.4582
2023-05-09T02:08:06.907Z,50.5845
2023-05-09T02:09:07.884Z,50.6898
2023-05-09T02:10:08.977Z,50.9006
2023-05-09T02:11:17.612Z,50.9446
2023-05-09T02:12:11.179Z,50.7662
2023-05-09T02:13:12.278Z,50.6789
2023-05-09T02:14:13.355Z,50.5477
2023-05-09T02:15:14.648Z,50.4067
2023-05-09T02:16:15.593Z,50.2460
2023-05-09T02:17:16.624Z,50.1005
2023-05-09T02:18:17.719Z,50.0293
2023-05-09T02:19:18.806Z,50.0795
2023-05-09T02:20:19.891Z,50.1659
2023-05-09T02:21:20.985Z,50.1531
2023-05-09T02:22:22.105Z,50.2349
2023-05-09T02:23:23.267Z,50.2132
2023-05-09T02:24:24.340Z,50.1738
2023-05-09T02:25:25.417Z,50.1252
2023-05-09T02:26:26.515Z,50.1228
2023-05-09T02:27:27.625Z,50.2024
2023-05-09T02:28:28.686Z,50.3862
2023-05-09T02:29:29.788Z,50.3213
2023-05-09T02:30:30.874Z,50.3825
2023-05-09T02:31:32.009Z,50.4020
2023-05-09T02:32:33.097Z,50.4714
2023-05-09T02:33:34.131Z,50.5305
2023-05-09T02:34:35.223Z,50.4339
2023-05-09T02:35:36.307Z,50.3709
2023-05-09T02:36:37.437Z,50.3468
2023-05-09T02:37:38.499Z,50.4068
2023-05-09T02:38:39.641Z,50.4303
2023-05-09T02:39:40.650Z,50.3745
2023-05-09T02:40:41.744Z,50.3345
2023-05-09T02:41:42.814Z,50.4487
2023-05-09T02:42:43.911Z,50.5366
2023-05-09T02:43:44.991Z,50.6153
2023-05-09T02:44:46.089Z,50.7264
2023-05-09T02:45:47.249Z,50.8253
2023-05-09T02:46:48.265Z,50.7241
2023-05-09T02:47:49.416Z,50.7960
2023-05-09T02:48:50.460Z,50.8694
2023-05-09T02:49:51.556Z,50.8946
2023-05-09T02:50:52.689Z,50.7295
2023-05-09T02:51:53.741Z,50.6238
2023-05-09T02:52:54.819Z,50.6308
2023-05-09T02:53:55.984Z,50.5808
2023-05-09T02:54:57.018Z,50.5993
2023-05-09T02:55:58.112Z,50.4980
2023-05-09T02:56:59.213Z,50.4040
2023-05-09T02:58:12.562Z,50.3433
2023-05-09T02:59:02.370Z,50.3391
2023-05-09T03:00:02.489Z,50.3134
2023-05-09T03:01:03.609Z,50.3507
2023-05-09T03:02:04.664Z,50.4284
2023-05-09T03:03:05.877Z,50.4628
2023-05-09T03:04:06.840Z,50.4333
2023-05-09T03:05:07.947Z,50.3953
2023-05-09T03:06:09.022Z,50.3792
2023-05-09T03:07:10.117Z,50.3337
2023-05-09T03:08:11.256Z,50.2605
2023-05-09T03:09:12.383Z,50.2453
2023-05-09T03:10:13.430Z,50.1812
2023-05-09T03:11:14.481Z,50.1964
2023-05-09T03:12:15.598Z,50.2616
2023-05-09T03:13:16.712Z,50.3031
2023-05-09T03:14:17.784Z,50.3186
2023-05-09T03:15:18.874Z,50.4837
2023-05-09T03:16:20.047Z,50.6798
2023-05-09T03:17:21.129Z,50.5559
2023-05-09T03:18:22.157Z,50.4544
2023-05-09T03:19:23.253Z,50.3837
2023-05-09T03:20:24.345Z,50.4661
2023-05-09T03:21:25.425Z,50.5122
2023-05-09T03:22:26.536Z,50.5460
2023-05-09T03:23:27.607Z,50.6209
2023-05-09T03:24:28.802Z,50.5211
2023-05-09T03:25:29.806Z,50.5034
2023-05-09T03:26:30.887Z,50.4404
2023-05-09T03:27:31.986Z,50.3454
2023-05-09T03:28:33.094Z,50.3591
2023-05-09T03:29:34.161Z,50.3745
2023-05-09T03:30:35.270Z,50.3123
2023-05-09T03:31:36.419Z,50.3613
2023-05-09T03:32:37.491Z,50.3913
2023-05-09T03:33:38.565Z,50.4193
2023-05-09T03:34:39.622Z,50.4214
2023-05-09T03:35:40.755Z,50.3744
2023-05-09T03:36:41.806Z,50.3421
2023-05-09T03:37:42.902Z,50.3553
2023-05-09T03:38:44.047Z,50.4139
2023-05-09T03:39:45.180Z,50.3284
2023-05-09T03:40:46.195Z,50.2863
2023-05-09T03:41:47.266Z,50.3268
2023-05-09T03:42:48.398Z,50.2905
2023-05-09T03:43:49.502Z,50.3235
2023-05-09T03:44:50.550Z,50.4557
2023-05-09T03:45:51.643Z,50.4780
2023-05-09T03:46:52.850Z,50.5299
2023-05-09T03:47:53.868Z,50.6524
2023-05-09T03:48:54.968Z,50.6082
2023-05-09T03:49:56.039Z,50.5477
2023-05-09T03:50:57.130Z,50.6099
2023-05-09T03:51:58.210Z,50.5839
2023-05-09T03:52:59.315Z,50.5389
2023-05-09T03:54:00.408Z,50.5490
2023-05-09T03:55:01.595Z,50.5561
2023-05-09T03:56:02.591Z,50.6837
2023-05-09T03:57:03.668Z,50.6217
2023-05-09T03:58:04.783Z,50.5903
2023-05-09T03:59:05.887Z,50.5595
2023-05-09T04:00:06.995Z,50.5857
2023-05-09T04:01:08.060Z,50.6258
2023-05-09T04:02:09.190Z,50.6841
2023-05-09T04:03:10.464Z,50.6464
2023-05-09T04:04:11.411Z,50.6104
2023-05-09T04:05:12.673Z,50.5437
2023-05-09T04:06:13.513Z,50.4714
2023-05-09T04:07:14.614Z,50.3938
2023-05-09T04:08:15.722Z,50.4364
2023-05-09T04:09:16.817Z,50.6025
2023-05-09T04:10:18.015Z,50.6271
2023-05-09T04:11:18.985Z,50.5580
2023-05-09T04:12:20.086Z,50.4684
2023-05-09T04:13:21.242Z,50.4343
2023-05-09T04:14:22.297Z,50.4136
2023-05-09T04:15:23.384Z,50.3927
2023-05-09T04:16:24.501Z,50.4420
2023-05-09T04:17:25.632Z,50.6601
2023-05-09T04:18:26.661Z,50.6557
2023-05-09T04:19:27.793Z,50.5400
2023-05-09T04:20:28.839Z,50.4686
2023-05-09T04:21:29.920Z,50.4318
2023-05-09T04:22:31.048Z,50.4474
2023-05-09T04:23:32.121Z,50.4755
2023-05-09T04:24:33.219Z,50.5153
2023-05-09T04:25:34.402Z,50.5505
2023-05-09T04:26:35.386Z,50.5443
2023-05-09T04:27:36.481Z,50.5114
2023-05-09T04:28:37.568Z,50.5093
2023-05-09T04:29:38.708Z,50.5510
2023-05-09T04:30:39.779Z,50.5087
2023-05-09T04:31:40.909Z,50.5845
2023-05-09T04:32:41.990Z,50.6503
2023-05-09T04:33:43.063Z,50.6753
2023-05-09T04:34:44.169Z,50.7776
2023-05-09T04:35:45.217Z,50.8404
2023-05-09T04:36:46.308Z,50.8612
2023-05-09T04:37:47.411Z,50.8879
2023-05-09T04:38:48.512Z,50.8607
2023-05-09T04:39:49.622Z,50.8771
2023-05-09T04:40:50.781Z,50.7768
2023-05-09T04:41:51.785Z,50.7969
2023-05-09T04:42:52.869Z,50.8895
2023-05-09T04:43:53.957Z,50.8632
2023-05-09T04:44:55.073Z,50.8557
2023-05-09T04:45:56.187Z,50.8362
2023-05-09T04:46:57.239Z,50.8108
2023-05-09T04:47:58.475Z,50.8705
2023-05-09T04:48:59.459Z,50.9225
2023-05-09T04:50:00.537Z,50.9070
2023-05-09T04:51:01.619Z,50.9372
2023-05-09T04:52:02.754Z,50.9505
2023-05-09T04:53:03.808Z,50.9709
2023-05-09T04:54:04.911Z,51.0387
2023-05-09T04:55:06.010Z,51.1165
2023-05-09T04:56:07.197Z,51.1391
2023-05-09T04:57:17.455Z,51.1674
2023-05-09T04:58:10.267Z,51.1977
2023-05-09T04:59:10.400Z,51.2889
2023-05-09T05:00:11.516Z,51.2716
2023-05-09T05:01:12.617Z,51.2181
2023-05-09T05:02:13.667Z,51.2323
2023-05-09T05:03:14.750Z,51.3157
2023-05-09T05:04:15.895Z,51.3626
2023-05-09T05:05:17.109Z,51.3565
2023-05-09T05:06:18.075Z,51.3773
2023-05-09T05:07:19.141Z,51.3846
2023-05-09T05:08:20.262Z,51.4276
2023-05-09T05:09:21.345Z,51.4636
2023-05-09T05:10:22.471Z,51.4404
2023-05-09T05:11:23.611Z,51.3402
2023-05-09T05:12:24.624Z,51.3695
2023-05-09T05:13:25.814Z,51.4213
2023-05-09T05:14:26.813Z,51.4242
2023-05-09T05:15:27.917Z,51.4543
2023-05-09T05:16:29.092Z,51.4664
2023-05-09T05:17:30.116Z,51.5664
2023-05-09T05:18:31.188Z,51.6402
2023-05-09T05:19:32.298Z,51.5957
2023-05-09T05:20:33.423Z,51.5625
2023-05-09T05:21:34.473Z,51.5524
2023-05-09T05:22:35.587Z,51.5190
2023-05-09T05:23:36.667Z,51.5254
2023-05-09T05:24:37.786Z,51.5456
2023-05-09T05:25:38.883Z,51.5780
2023-05-09T05:26:40.052Z,51.5762
2023-05-09T05:27:41.105Z,51.5296
2023-05-09T05:28:42.149Z,51.6269
2023-05-09T05:29:43.256Z,51.6701
2023-05-09T05:30:44.363Z,51.7487
2023-05-09T05:31:45.443Z,51.7357
2023-05-09T05:32:46.547Z,51.7384
2023-05-09T05:33:47.621Z,51.7904
2023-05-09T05:34:48.729Z,51.7315
2023-05-09T05:35:49.829Z,51.7123
2023-05-09T05:36:50.899Z,51.6494
2023-05-09T05:37:52.001Z,51.6322
2023-05-09T05:38:53.107Z,51.6536
2023-05-09T05:39:54.213Z,51.7200
2023-05-09T05:40:55.322Z,51.6611
2023-05-09T05:41:56.496Z,51.6380
2023-05-09T05:42:57.503Z,51.7379
2023-05-09T05:43:58.583Z,51.8211
2023-05-09T05:44:59.685Z,51.7766
2023-05-09T05:46:00.838Z,51.8158
2023-05-09T05:47:01.864Z,51.8543
2023-05-09T05:48:03.032Z,51.9185
2023-05-09T05:49:04.068Z,51.9893
2023-05-09T05:50:05.161Z,52.0056
2023-05-09T05:51:06.261Z,52.0451
2023-05-09T05:52:07.356Z,52.0113
2023-05-09T05:53:08.446Z,52.0112
2023-05-09T05:54:09.542Z,52.0516
2023-05-09T05:55:10.652Z,52.0497
2023-05-09T05:56:11.784Z,52.0892
2023-05-09T05:57:12.864Z,52.2015
2023-05-09T05:58:13.958Z,52.1829
2023-05-09T05:59:15.026Z,52.1440
2023-05-09T06:00:16.117Z,52.0306
2023-05-09T06:01:17.223Z,51.9454
2023-05-09T06:02:18.436Z,51.9842
2023-05-09T06:03:19.499Z,51.9127
2023-05-09T06:04:20.614Z,51.8403
2023-05-09T06:05:21.602Z,51.9184
2023-05-09T06:06:22.708Z,52.0292
2023-05-09T06:07:23.790Z,52.1261
2023-05-09T06:08:24.895Z,52.1203
2023-05-09T06:09:25.992Z,52.0896
2023-05-09T06:10:27.099Z,52.1596
2023-05-09T06:11:28.208Z,52.1185
2023-05-09T06:12:29.378Z,52.1108
2023-05-09T06:13:30.402Z,52.1533
2023-05-09T06:14:31.478Z,52.1529
2023-05-09T06:15:32.560Z,52.1619
2023-05-09T06:16:33.677Z,52.2018
2023-05-09T06:17:34.785Z,52.2219
2023-05-09T06:18:35.861Z,52.2358
2023-05-09T06:19:36.953Z,52.2525
2023-05-09T06:20:38.048Z,52.3509
2023-05-09T06:21:39.149Z,52.3861
2023-05-09T06:22:40.234Z,52.3258
2023-05-09T06:23:57.000Z,52.3209
2023-05-09T06:24:43.488Z,52.4719
2023-05-09T06:25:43.613Z,52.4514
2023-05-09T06:26:44.666Z,52.3722
2023-05-09T06:27:45.849Z,52.3407
2023-05-09T06:28:46.871Z,52.3655
2023-05-09T06:29:47.976Z,52.4225
2023-05-09T06:30:49.065Z,52.4814
2023-05-09T06:31:50.191Z,52.5542
2023-05-09T06:32:51.284Z,52.4547
2023-05-09T06:33:52.373Z,52.3716
2023-05-09T06:34:53.456Z,52.4331
2023-05-09T06:35:54.532Z,52.4603
2023-05-09T06:36:55.633Z,52.4942
2023-05-09T06:37:56.737Z,52.4558
2023-05-09T06:38:57.821Z,52.4709
2023-05-09T06:39:58.920Z,52.4830
2023-05-09T06:41:00.011Z,52.5154
2023-05-09T06:42:01.146Z,52.4549
2023-05-09T06:43:02.300Z,52.3969
2023-05-09T06:44:03.300Z,52.2712
2023-05-09T06:45:04.425Z,52.1804
2023-05-09T06:46:05.537Z,52.1124
2023-05-09T06:47:06.593Z,52.1224
2023-05-09T06:48:07.787Z,52.0959
2023-05-09T06:49:08.775Z,52.1130
2023-05-09T06:50:09.883Z,52.0900
2023-05-09T06:51:10.988Z,52.0048
2023-05-09T06:52:12.073Z,52.0025
2023-05-09T06:53:13.158Z,52.0248
2023-05-09T06:54:14.257Z,52.0889
2023-05-09T06:55:15.591Z,52.1117
2023-05-09T06:56:18.322Z,52.1090
2023-05-09T06:57:17.541Z,52.0214
2023-05-09T06:58:18.718Z,52.0529
2023-05-09T06:59:19.712Z,51.9927
2023-05-09T07:00:20.826Z,52.0086
2023-05-09T07:01:21.979Z,51.9477
2023-05-09T07:02:23.039Z,51.9534
2023-05-09T07:03:24.091Z,51.9780
2023-05-09T07:04:25.189Z,51.9180
2023-05-09T07:05:26.353Z,51.8487
2023-05-09T07:06:27.369Z,51.6248
2023-05-09T07:07:28.500Z,51.5579
2023-05-09T07:08:29.564Z,51.5504
2023-05-09T07:09:30.667Z,51.5741
2023-05-09T07:10:31.730Z,51.5042
2023-05-09T07:11:32.820Z,51.5829
2023-05-09T07:12:33.946Z,51.4934
2023-05-09T07:13:35.114Z,51.3805
2023-05-09T07:14:36.129Z,51.3664
2023-05-09T07:15:42.266Z,51.3586
2023-05-09T07:16:39.357Z,51.2560
2023-05-09T07:17:39.505Z,51.1897
2023-05-09T07:18:40.509Z,51.0275
2023-05-09T07:19:41.583Z,50.9788
2023-05-09T07:20:42.685Z,50.8320
2023-05-09T07:21:43.795Z,50.9105
2023-05-09T07:22:44.891Z,50.8323
2023-05-09T07:23:46.060Z,50.5857
2023-05-09T07:24:47.076Z,50.4853
2023-05-09T07:25:48.169Z,50.3818
2023-05-09T07:26:49.258Z,50.3082
2023-05-09T07:27:50.388Z,50.2863
2023-05-09T07:28:51.533Z,50.2171
2023-05-09T07:29:52.541Z,50.1986
2023-05-09T07:30:53.655Z,50.1583
2023-05-09T07:31:54.788Z,50.1197
2023-05-09T07:32:55.885Z,50.2594
2023-05-09T07:33:56.925Z,50.2826
2023-05-09T07:34:58.035Z,50.2308
2023-05-09T07:35:59.162Z,50.0738
2023-05-09T07:37:00.218Z,50.0190
2023-05-09T07:38:01.337Z,49.9664
2023-05-09T07:39:02.394Z,49.9307
2023-05-09T07:40:03.500Z,49.8462
2023-05-09T07:41:04.611Z,49.7672
2023-05-09T07:42:05.701Z,49.7015
2023-05-09T07:43:06.790Z,49.5556
2023-05-09T07:44:08.023Z,49.4744
2023-05-09T07:45:08.980Z,49.3474
2023-05-09T07:46:10.125Z,49.2607
2023-05-09T07:47:11.160Z,49.0854
2023-05-09T07:48:12.334Z,48.9153
2023-05-09T07:49:13.358Z,48.8288
2023-05-09T07:50:14.448Z,48.7973
2023-05-09T07:51:15.547Z,48.8498
2023-05-09T07:52:16.618Z,48.8353
2023-05-09T07:53:17.791Z,48.9231
2023-05-09T07:54:18.828Z,48.7829
2023-05-09T07:55:19.917Z,48.6288
2023-05-09T07:56:21.014Z,48.6113
2023-05-09T07:57:22.143Z,48.6483
2023-05-09T07:58:23.196Z,48.7746
2023-05-09T07:59:24.367Z,48.8851
2023-05-09T08:00:25.459Z,48.7731
2023-05-09T08:01:26.485Z,48.8843
2023-05-09T08:02:27.625Z,48.9412
2023-05-09T08:03:28.721Z,48.8291
2023-05-09T08:04:29.793Z,48.6792
2023-05-09T08:05:30.877Z,48.4881
2023-05-09T08:06:31.947Z,48.4566
2023-05-09T08:07:33.055Z,48.5545
2023-05-09T08:08:34.175Z,48.6104
2023-05-09T08:09:35.240Z,48.6826
2023-05-09T08:10:36.367Z,48.6309
2023-05-09T08:11:37.433Z,48.4901
2023-05-09T08:12:38.564Z,48.4749
2023-05-09T08:13:39.620Z,48.4937
2023-05-09T08:14:40.810Z,48.6274
2023-05-09T08:15:41.867Z,48.6569
2023-05-09T08:16:42.907Z,48.5755
2023-05-09T08:17:44.060Z,48.6722
2023-05-09T08:18:45.118Z,48.6207
2023-05-09T08:19:46.188Z,48.4841
2023-05-09T08:20:47.283Z,48.4815
2023-05-09T08:21:48.377Z,48.4428
2023-05-09T08:22:49.486Z,48.3542
2023-05-09T08:23:50.568Z,48.3911
2023-05-09T08:24:51.643Z,48.3463
2023-05-09T08:25:52.748Z,48.3794
2023-05-09T08:26:53.849Z,48.4031
2023-05-09T08:27:54.942Z,48.4373
2023-05-09T08:28:56.063Z,48.5103
2023-05-09T08:29:57.223Z,48.6908
2023-05-09T08:30:58.271Z,48.6853
2023-05-09T08:31:59.405Z,48.6076
2023-05-09T08:33:00.445Z,48.6025
2023-05-09T08:34:01.531Z,48.5850
2023-05-09T08:35:02.626Z,48.5833
2023-05-09T08:36:03.711Z,48.5123
2023-05-09T08:37:04.795Z,48.4853
2023-05-09T08:38:05.891Z,48.4910
2023-05-09T08:39:06.984Z,48.5657
2023-05-09T08:40:08.086Z,48.6653
2023-05-09T08:41:09.201Z,48.6661
2023-05-09T08:42:10.287Z,48.6976
2023-05-09T08:43:11.386Z,48.7395
2023-05-09T08:44:12.483Z,48.8815
2023-05-09T08:45:13.558Z,48.9219
2023-05-09T08:46:14.680Z,49.0245
2023-05-09T08:47:15.767Z,49.0421
2023-05-09T08:48:16.865Z,49.0913
2023-05-09T08:49:17.946Z,49.0865
2023-05-09T08:50:19.164Z,49.0234
2023-05-09T08:51:20.149Z,48.9844
2023-05-09T08:52:21.244Z,48.9475
2023-05-09T08:53:22.314Z,48.8973
2023-05-09T08:54:23.447Z,49.0001
2023-05-09T08:55:24.519Z,49.0356
2023-05-09T08:56:25.614Z,49.0072
2023-05-09T08:57:26.693Z,49.0157
2023-05-09T08:58:27.797Z,48.9469
2023-05-09T08:59:28.902Z,49.0233
2023-05-09T09:00:30.080Z,49.1577
2023-05-09T09:01:31.105Z,49.1354
2023-05-09T09:02:32.204Z,49.0386
2023-05-09T09:03:33.280Z,49.0569
2023-05-09T09:04:34.428Z,49.1103
2023-05-09T09:06:36.567Z,49.2494
2023-05-09T09:07:37.662Z,49.1750
2023-05-09T09:08:38.761Z,49.1027
2023-05-09T09:09:39.856Z,49.0610
2023-05-09T09:10:40.925Z,48.9950
2023-05-09T09:11:42.039Z,49.0826
2023-05-09T09:12:43.145Z,49.1366
2023-05-09T09:13:44.202Z,49.0407
2023-05-09T09:14:45.324Z,48.9636
2023-05-09T09:15:46.509Z,49.0007
2023-05-09T09:16:47.530Z,49.0244
2023-05-09T09:17:48.624Z,49.0332
2023-05-09T09:18:49.691Z,49.0587
2023-05-09T09:19:50.838Z,49.1007
2023-05-09T09:20:51.866Z,49.0447
2023-05-09T09:21:52.973Z,48.9915
2023-05-09T09:22:54.095Z,49.0251
2023-05-09T09:23:55.174Z,49.0659
2023-05-09T09:24:56.259Z,49.0923
2023-05-09T09:25:59.539Z,49.2517
2023-05-09T09:26:58.449Z,49.3318
2023-05-09T09:27:59.579Z,49.3821
2023-05-09T09:29:00.640Z,49.4658
2023-05-09T09:30:01.770Z,49.4169
2023-05-09T09:31:02.915Z,49.3815
2023-05-09T09:32:03.949Z,49.4794
2023-05-09T09:33:05.117Z,49.4986
2023-05-09T09:34:06.936Z,49.5042
2023-05-09T09:35:07.238Z,49.5954
2023-05-09T09:36:08.295Z,49.5840
2023-05-09T09:37:09.395Z,49.4576
2023-05-09T09:38:10.497Z,49.3409
2023-05-09T09:39:11.590Z,49.3584
2023-05-09T09:40:12.913Z,49.2274
2023-05-09T09:41:13.782Z,49.2177
2023-05-09T09:42:14.894Z,49.2663
2023-05-09T09:43:15.969Z,49.2126
2023-05-09T09:44:17.081Z,49.1955
2023-05-09T09:45:18.186Z,49.2360
2023-05-09T09:46:19.361Z,49.1595
2023-05-09T09:47:20.352Z,49.1133
2023-05-09T09:48:21.445Z,49.2024
2023-05-09T09:49:22.523Z,49.3602
2023-05-09T09:50:23.648Z,49.4199
2023-05-09T09:51:24.712Z,49.4330
2023-05-09T09:52:25.835Z,49.3047
2023-05-09T09:53:26.919Z,49.2115
2023-05-09T09:54:28.037Z,49.2502
2023-05-09T09:55:29.107Z,49.3109
2023-05-09T09:56:30.190Z,49.2922
2023-05-09T09:57:31.348Z,49.2023
2023-05-09T09:58:32.399Z,49.2729
2023-05-09T09:59:33.495Z,49.3306
2023-05-09T10:00:34.566Z,49.2070
2023-05-09T10:01:35.805Z,49.1655
2023-05-09T10:02:36.789Z,49.0389
2023-05-09T10:03:37.889Z,48.9358
2023-05-09T10:04:39.053Z,49.0692
2023-05-09T10:05:40.039Z,49.0186
2023-05-09T10:06:41.121Z,48.8387
2023-05-09T10:07:42.214Z,48.7492
2023-05-09T10:08:43.293Z,48.7366
2023-05-09T10:09:44.380Z,48.8031
2023-05-09T10:10:45.515Z,48.8024
2023-05-09T10:11:46.568Z,48.8365
2023-05-09T10:12:47.719Z,48.8460
2023-05-09T10:13:48.763Z,48.8271
2023-05-09T10:14:49.856Z,48.8840
2023-05-09T10:15:53.879Z,48.8466
2023-05-09T10:16:52.204Z,48.8274
2023-05-09T10:17:53.271Z,48.8732
2023-05-09T10:18:54.308Z,48.8565
2023-05-09T10:19:55.318Z,48.8012
2023-05-09T10:20:56.482Z,48.8426
2023-05-09T10:21:57.498Z,48.7073
2023-05-09T10:22:58.581Z,48.5584
2023-05-09T10:23:59.684Z,48.5072
2023-05-09T10:25:00.836Z,48.4287
2023-05-09T10:26:01.957Z,48.4525
2023-05-09T10:27:03.035Z,48.5226
2023-05-09T10:28:04.139Z,48.5404
2023-05-09T10:29:05.208Z,48.5042
2023-05-09T10:30:06.322Z,48.4546
2023-05-09T10:31:08.872Z,48.5832
2023-05-09T10:32:08.589Z,48.8451
2023-05-09T10:33:09.639Z,48.8235
2023-05-09T10:34:10.696Z,48.7541
2023-05-09T10:35:11.825Z,48.6575
2023-05-09T10:36:12.920Z,48.5099
2023-05-09T10:37:13.976Z,48.6341
2023-05-09T10:38:15.072Z,48.9220
2023-05-09T10:39:16.168Z,49.0592
2023-05-09T10:40:17.274Z,48.9424
2023-05-09T10:41:18.356Z,48.9235
2023-05-09T10:42:19.467Z,48.8721
2023-05-09T10:43:20.538Z,48.8836
2023-05-09T10:44:21.624Z,48.7683
2023-05-09T10:45:22.765Z,48.7889
2023-05-09T10:46:23.905Z,48.7219
2023-05-09T10:47:25.035Z,48.5374
2023-05-09T10:48:26.001Z,48.3559
2023-05-09T10:49:27.096Z,48.3263
2023-05-09T10:50:28.198Z,48.1993
2023-05-09T10:51:29.310Z,48.1272
2023-05-09T10:52:30.395Z,48.0410
2023-05-09T10:53:31.479Z,48.0302
2023-05-09T10:54:32.562Z,48.0986
2023-05-09T10:55:33.655Z,47.9868
2023-05-09T10:56:34.772Z,48.0592
2023-05-09T10:57:35.858Z,48.1326
2023-05-09T10:58:36.932Z,48.3256
2023-05-09T10:59:38.036Z,48.4303
2023-05-09T11:00:39.141Z,48.3999
2023-05-09T11:01:40.301Z,48.4031
2023-05-09T11:02:41.463Z,48.3944
2023-05-09T11:03:42.500Z,48.3377
2023-05-09T11:04:43.516Z,48.1808
2023-05-09T11:05:44.583Z,48.1178
2023-05-09T11:06:45.706Z,47.9387
2023-05-09T11:07:46.786Z,47.8948
2023-05-09T11:08:47.878Z,47.9424
2023-05-09T11:09:48.968Z,47.8713
2023-05-09T11:10:50.055Z,47.8074
2023-05-09T11:11:51.168Z,47.7906
2023-05-09T11:12:52.248Z,47.8135
2023-05-09T11:13:53.340Z,47.8020
2023-05-09T11:14:54.433Z,47.7503
2023-05-09T11:15:55.578Z,47.6066
2023-05-09T11:16:56.613Z,47.4659
2023-05-09T11:17:57.840Z,47.4750
2023-05-09T11:18:58.813Z,47.3938
2023-05-09T11:19:59.892Z,47.3923
2023-05-09T11:21:01.007Z,47.5142
2023-05-09T11:22:02.127Z,47.6437
2023-05-09T11:23:03.182Z,47.7426
2023-05-09T11:24:04.300Z,47.7117
2023-05-09T11:25:05.370Z,47.5437
2023-05-09T11:26:06.523Z,47.4282
2023-05-09T11:27:07.594Z,47.3548
2023-05-09T11:28:08.672Z,47.3602
2023-05-09T11:29:09.781Z,47.4646
2023-05-09T11:30:10.876Z,47.6575
2023-05-09T11:31:11.955Z,47.8036
2023-05-09T11:32:13.180Z,47.9005
2023-05-09T11:33:14.228Z,47.8993
2023-05-09T11:34:15.221Z,47.8158
2023-05-09T11:35:16.664Z,47.7480
2023-05-09T11:36:17.440Z,47.6717
2023-05-09T11:37:18.515Z,47.6754
2023-05-09T11:38:19.604Z,47.6301
2023-05-09T11:39:20.704Z,47.6357
2023-05-09T11:40:21.813Z,47.6482
2023-05-09T11:41:22.894Z,47.6686
2023-05-09T11:42:23.977Z,47.4722
2023-05-09T11:43:25.076Z,47.3345
2023-05-09T11:44:26.178Z,47.2064
2023-05-09T11:45:27.271Z,47.2883
2023-05-09T11:46:28.373Z,47.5014
2023-05-09T11:47:29.484Z,47.5597
2023-05-09T11:48:30.618Z,47.4184
2023-05-09T11:49:31.619Z,47.3601
2023-05-09T11:50:32.730Z,47.4689
2023-05-09T11:51:33.819Z,47.3074
2023-05-09T11:52:34.906Z,47.1947
2023-05-09T11:53:35.991Z,47.1224
2023-05-09T11:54:37.085Z,47.1619
2023-05-09T11:55:38.217Z,47.2461
2023-05-09T11:56:39.288Z,47.4796
2023-05-09T11:57:40.379Z,47.6202
2023-05-09T11:58:41.457Z,47.6492
2023-05-09T11:59:42.542Z,47.5480
2023-05-09T12:00:43.650Z,47.4801
2023-05-09T12:01:44.731Z,47.5747
2023-05-09T12:02:46.035Z,47.6052
2023-05-09T12:03:47.068Z,47.5551
2023-05-09T12:04:48.028Z,47.3911
2023-05-09T12:05:49.170Z,47.3248
2023-05-09T12:06:50.200Z,47.3083
2023-05-09T12:07:51.346Z,47.2628
2023-05-09T12:08:52.402Z,47.1068
2023-05-09T12:09:53.511Z,46.9757
2023-05-09T12:10:54.602Z,46.9168
2023-05-09T12:11:55.684Z,46.7676
2023-05-09T12:12:56.797Z,46.6816
2023-05-09T12:13:57.908Z,46.6434
2023-05-09T12:14:59.006Z,46.5897
2023-05-09T12:16:00.163Z,46.5197
2023-05-09T12:17:01.168Z,46.4116
2023-05-09T12:18:02.303Z,46.3317
2023-05-09T12:19:03.418Z,46.2488
2023-05-09T12:20:04.472Z,46.2697